sensor_id;sensor_type;location;lat;lon;timestamp;temperature;humidity
2012;DHT22;1009;51.436;6.972;2023-05-10T00:00:56;13.80;99.90
2012;DHT22;1009;51.436;6.972;2023-05-10T00:03:22;13.80;99.90
2012;DHT22;1009;51.436;6.972;2023-05-10T00:05:49;13.80;99.90
2012;DHT22;1009;51.436;6.972;2023-05-10T00:08:16;13.80;99.90
2012;DHT22;1009;51.436;6.972;2023-05-10T00:10:42;13.80;99.90
2012;DHT22;1009;51.436;6.972;2023-05-10T00:13:10;13.90;99.90
2012;DHT22;1009;51.436;6.972;2023-05-10T00:15:37;13.80;99.90
2012;DHT22;1009;51.436;6.972;2023-05-10T00:18:04;13.80;99.90
2012;DHT22;1009;51.436;6.972;2023-05-10T00:20:31;13.90;99.90
2012;DHT22;1009;51.436;6.972;2023-05-10T00:22:57;13.90;99.90
2012;DHT22;1009;51.436;6.972;2023-05-10T00:25:24;13.90;99.90
2012;DHT22;1009;51.436;6.972;2023-05-10T00:27:54;13.90;99.90
2012;DHT22;1009;51.436;6.972;2023-05-10T00:30:34;13.90;99.90
2012;DHT22;1009;51.436;6.972;2023-05-10T00:33:01;13.90;99.90
2012;DHT22;1009;51.436;6.972;2023-05-10T00:35:28;13.90;99.90
2012;DHT22;1009;51.436;6.972;2023-05-10T00:37:55;13.90;99.90
2012;DHT22;1009;51.436;6.972;2023-05-10T00:40:24;13.90;99.90
2012;DHT22;1009;51.436;6.972;2023-05-10T00:43:00;13.90;99.90
2012;DHT22;1009;51.436;6.972;2023-05-10T00:45:27;13.80;99.90
2012;DHT22;1009;51.436;6.972;2023-05-10T00:47:55;13.80;99.90
2012;DHT22;1009;51.436;6.972;2023-05-10T00:50:22;13.80;99.90
2012;DHT22;1009;51.436;6.972;2023-05-10T00:52:49;13.80;99.90
2012;DHT22;1009;51.436;6.972;2023-05-10T00:55:16;13.80;99.90
2012;DHT22;1009;51.436;6.972;2023-05-10T00:57:47;13.80;99.90
2012;DHT22;1009;51.436;6.972;2023-05-10T01:00:14;13.70;99.90
2012;DHT22;1009;51.436;6.972;2023-05-10T01:02:43;13.70;99.90
2012;DHT22;1009;51.436;6.972;2023-05-10T01:05:12;13.70;99.90
2012;DHT22;1009;51.436;6.972;2023-05-10T01:07:39;13.60;99.90
2012;DHT22;1009;51.436;6.972;2023-05-10T01:10:07;13.70;99.90
2012;DHT22;1009;51.436;6.972;2023-05-10T01:12:35;13.60;99.90
2012;DHT22;1009;51.436;6.972;2023-05-10T01:15:04;13.60;99.90
2012;DHT22;1009;51.436;6.972;2023-05-10T01:17:32;13.50;99.90
2012;DHT22;1009;51.436;6.972;2023-05-10T01:20:00;13.40;99.90
2012;DHT22;1009;51.436;6.972;2023-05-10T01:22:44;13.40;99.90
2012;DHT22;1009;51.436;6.972;2023-05-10T01:25:37;13.30;99.90
2012;DHT22;1009;51.436;6.972;2023-05-10T01:28:21;13.30;99.90
2012;DHT22;1009;51.436;6.972;2023-05-10T01:31:13;13.30;99.90
2012;DHT22;1009;51.436;6.972;2023-05-10T01:33:52;13.40;99.90
2012;DHT22;1009;51.436;6.972;2023-05-10T01:36:26;13.50;99.90
2012;DHT22;1009;51.436;6.972;2023-05-10T01:38:59;13.50;99.90
2012;DHT22;1009;51.436;6.972;2023-05-10T01:41:36;13.40;99.90
2012;DHT22;1009;51.436;6.972;2023-05-10T01:44:11;13.40;99.90
2012;DHT22;1009;51.436;6.972;2023-05-10T01:46:40;13.40;99.90
2012;DHT22;1009;51.436;6.972;2023-05-10T01:49:10;13.50;99.90
2012;DHT22;1009;51.436;6.972;2023-05-10T01:51:41;13.50;99.90
2012;DHT22;1009;51.436;6.972;2023-05-10T01:54:09;13.50;99.90
2012;DHT22;1009;51.436;6.972;2023-05-10T01:56:38;13.40;99.90
2012;DHT22;1009;51.436;6.972;2023-05-10T01:59:12;13.50;99.90
2012;DHT22;1009;51.436;6.972;2023-05-10T02:01:40;13.50;99.90
2012;DHT22;1009;51.436;6.972;2023-05-10T02:04:09;13.50;99.90
2012;DHT22;1009;51.436;6.972;2023-05-10T02:06:38;13.50;99.90
2012;DHT22;1009;51.436;6.972;2023-05-10T02:09:07;13.50;99.90
2012;DHT22;1009;51.436;6.972;2023-05-10T02:11:35;13.40;99.90
2012;DHT22;1009;51.436;6.972;2023-05-10T02:14:05;13.40;99.90
2012;DHT22;1009;51.436;6.972;2023-05-10T02:16:35;13.40;99.90
2012;DHT22;1009;51.436;6.972;2023-05-10T02:19:03;13.50;99.90
2012;DHT22;1009;51.436;6.972;2023-05-10T02:21:31;13.50;99.90
2012;DHT22;1009;51.436;6.972;2023-05-10T02:24:01;13.40;99.90
2012;DHT22;1009;51.436;6.972;2023-05-10T02:26:35;13.40;99.90
2012;DHT22;1009;51.436;6.972;2023-05-10T02:29:03;13.50;99.90
2012;DHT22;1009;51.436;6.972;2023-05-10T02:31:32;13.40;99.90
2012;DHT22;1009;51.436;6.972;2023-05-10T02:34:00;13.50;99.90
2012;DHT22;1009;51.436;6.972;2023-05-10T02:36:28;13.50;99.90
2012;DHT22;1009;51.436;6.972;2023-05-10T02:39:01;13.60;99.90
2012;DHT22;1009;51.436;6.972;2023-05-10T02:41:29;13.70;99.90
2012;DHT22;1009;51.436;6.972;2023-05-10T02:43:59;13.80;99.90
2012;DHT22;1009;51.436;6.972;2023-05-10T02:46:28;13.90;99.90
2012;DHT22;1009;51.436;6.972;2023-05-10T02:48:55;13.90;99.90
2012;DHT22;1009;51.436;6.972;2023-05-10T02:51:25;13.90;99.90
2012;DHT22;1009;51.436;6.972;2023-05-10T02:53:54;13.90;99.90
2012;DHT22;1009;51.436;6.972;2023-05-10T02:56:25;14.00;99.90
2012;DHT22;1009;51.436;6.972;2023-05-10T02:58:53;13.90;99.90
2012;DHT22;1009;51.436;6.972;2023-05-10T03:01:20;13.90;99.90
2012;DHT22;1009;51.436;6.972;2023-05-10T03:03:47;13.90;99.90
2012;DHT22;1009;51.436;6.972;2023-05-10T03:06:13;13.90;99.90
2012;DHT22;1009;51.436;6.972;2023-05-10T03:08:41;13.90;99.90
2012;DHT22;1009;51.436;6.972;2023-05-10T03:11:31;14.00;99.90
2012;DHT22;1009;51.436;6.972;2023-05-10T03:14:10;14.10;99.90
2012;DHT22;1009;51.436;6.972;2023-05-10T03:16:42;14.00;99.90
2012;DHT22;1009;51.436;6.972;2023-05-10T03:19:16;14.00;99.90
2012;DHT22;1009;51.436;6.972;2023-05-10T03:21:49;13.90;99.90
2012;DHT22;1009;51.436;6.972;2023-05-10T03:24:18;13.90;99.90
2012;DHT22;1009;51.436;6.972;2023-05-10T03:26:48;13.90;99.90
2012;DHT22;1009;51.436;6.972;2023-05-10T03:29:16;13.90;99.90
2012;DHT22;1009;51.436;6.972;2023-05-10T03:31:43;13.90;99.90
2012;DHT22;1009;51.436;6.972;2023-05-10T03:34:13;13.80;99.90
2012;DHT22;1009;51.436;6.972;2023-05-10T03:36:40;13.80;99.90
2012;DHT22;1009;51.436;6.972;2023-05-10T03:39:06;13.80;99.90
2012;DHT22;1009;51.436;6.972;2023-05-10T03:41:33;13.90;99.90
2012;DHT22;1009;51.436;6.972;2023-05-10T03:44:01;13.90;99.90
2012;DHT22;1009;51.436;6.972;2023-05-10T03:46:28;13.90;99.90
2012;DHT22;1009;51.436;6.972;2023-05-10T03:48:55;13.90;99.90
2012;DHT22;1009;51.436;6.972;2023-05-10T03:51:21;13.80;99.90
2012;DHT22;1009;51.436;6.972;2023-05-10T03:53:49;13.80;99.90
2012;DHT22;1009;51.436;6.972;2023-05-10T03:56:16;13.80;99.90
2012;DHT22;1009;51.436;6.972;2023-05-10T03:58:42;13.90;99.90
2012;DHT22;1009;51.436;6.972;2023-05-10T04:01:11;13.90;99.90
2012;DHT22;1009;51.436;6.972;2023-05-10T04:03:38;13.90;99.90
2012;DHT22;1009;51.436;6.972;2023-05-10T04:06:05;13.90;99.90
2012;DHT22;1009;51.436;6.972;2023-05-10T04:08:40;13.90;99.90
2012;DHT22;1009;51.436;6.972;2023-05-10T04:11:07;13.80;99.90
2012;DHT22;1009;51.436;6.972;2023-05-10T04:13:34;13.80;99.90
2012;DHT22;1009;51.436;6.972;2023-05-10T04:16:02;13.90;99.90
2012;DHT22;1009;51.436;6.972;2023-05-10T04:18:31;13.90;99.90
2012;DHT22;1009;51.436;6.972;2023-05-10T04:20:58;13.90;99.90
2012;DHT22;1009;51.436;6.972;2023-05-10T04:23:24;14.00;99.90
2012;DHT22;1009;51.436;6.972;2023-05-10T04:25:52;13.90;99.90
2012;DHT22;1009;51.436;6.972;2023-05-10T04:28:19;13.80;99.90
2012;DHT22;1009;51.436;6.972;2023-05-10T04:30:46;13.80;99.90
2012;DHT22;1009;51.436;6.972;2023-05-10T04:33:12;13.90;99.90
2012;DHT22;1009;51.436;6.972;2023-05-10T04:35:41;13.90;99.90
2012;DHT22;1009;51.436;6.972;2023-05-10T04:38:07;13.90;99.90
2012;DHT22;1009;51.436;6.972;2023-05-10T04:40:34;13.80;99.90
2012;DHT22;1009;51.436;6.972;2023-05-10T04:43:01;13.80;99.90
2012;DHT22;1009;51.436;6.972;2023-05-10T04:45:27;13.80;99.90
2012;DHT22;1009;51.436;6.972;2023-05-10T04:47:54;13.80;99.90
2012;DHT22;1009;51.436;6.972;2023-05-10T04:50:21;13.90;99.90
2012;DHT22;1009;51.436;6.972;2023-05-10T04:52:49;13.90;99.90
2012;DHT22;1009;51.436;6.972;2023-05-10T04:55:16;13.90;99.90
2012;DHT22;1009;51.436;6.972;2023-05-10T04:57:42;13.90;99.90
2012;DHT22;1009;51.436;6.972;2023-05-10T05:00:11;13.90;99.90
2012;DHT22;1009;51.436;6.972;2023-05-10T05:02:38;13.80;99.90
2012;DHT22;1009;51.436;6.972;2023-05-10T05:05:08;13.90;99.90
2012;DHT22;1009;51.436;6.972;2023-05-10T05:07:34;13.80;99.90
2012;DHT22;1009;51.436;6.972;2023-05-10T05:10:03;13.90;99.90
2012;DHT22;1009;51.436;6.972;2023-05-10T05:12:29;13.90;99.90
2012;DHT22;1009;51.436;6.972;2023-05-10T05:14:56;13.90;99.90
2012;DHT22;1009;51.436;6.972;2023-05-10T05:17:23;13.90;99.90
2012;DHT22;1009;51.436;6.972;2023-05-10T05:19:50;13.80;99.90
2012;DHT22;1009;51.436;6.972;2023-05-10T05:22:16;13.80;99.90
2012;DHT22;1009;51.436;6.972;2023-05-10T05:24:44;13.80;99.90
2012;DHT22;1009;51.436;6.972;2023-05-10T05:27:12;13.80;99.90
2012;DHT22;1009;51.436;6.972;2023-05-10T05:29:39;13.90;99.90
2012;DHT22;1009;51.436;6.972;2023-05-10T05:32:06;13.90;99.90
2012;DHT22;1009;51.436;6.972;2023-05-10T05:34:33;14.00;99.90
2012;DHT22;1009;51.436;6.972;2023-05-10T05:37:00;14.00;99.90
2012;DHT22;1009;51.436;6.972;2023-05-10T05:39:27;14.00;99.90
2012;DHT22;1009;51.436;6.972;2023-05-10T05:41:54;13.90;99.90
2012;DHT22;1009;51.436;6.972;2023-05-10T05:44:22;13.90;99.90
2012;DHT22;1009;51.436;6.972;2023-05-10T05:46:49;13.90;99.90
2012;DHT22;1009;51.436;6.972;2023-05-10T05:49:15;14.00;99.90
2012;DHT22;1009;51.436;6.972;2023-05-10T05:51:42;14.00;99.90
2012;DHT22;1009;51.436;6.972;2023-05-10T05:54:09;14.10;99.90
2012;DHT22;1009;51.436;6.972;2023-05-10T05:56:36;14.00;99.90
2012;DHT22;1009;51.436;6.972;2023-05-10T05:59:05;14.00;99.90
2012;DHT22;1009;51.436;6.972;2023-05-10T06:01:33;14.00;99.90
2012;DHT22;1009;51.436;6.972;2023-05-10T06:04:01;14.00;99.90
2012;DHT22;1009;51.436;6.972;2023-05-10T06:06:28;14.00;99.90
2012;DHT22;1009;51.436;6.972;2023-05-10T06:08:54;14.00;99.90
2012;DHT22;1009;51.436;6.972;2023-05-10T06:11:21;14.10;99.90
2012;DHT22;1009;51.436;6.972;2023-05-10T06:13:48;14.10;99.90
2012;DHT22;1009;51.436;6.972;2023-05-10T06:16:15;14.00;99.90
2012;DHT22;1009;51.436;6.972;2023-05-10T06:18:43;13.90;99.90
2012;DHT22;1009;51.436;6.972;2023-05-10T06:21:09;13.90;99.90
2012;DHT22;1009;51.436;6.972;2023-05-10T06:23:36;13.90;99.90
2012;DHT22;1009;51.436;6.972;2023-05-10T06:26:03;14.00;99.90
2012;DHT22;1009;51.436;6.972;2023-05-10T06:28:29;13.90;99.90
2012;DHT22;1009;51.436;6.972;2023-05-10T06:31:00;13.90;99.90
2012;DHT22;1009;51.436;6.972;2023-05-10T06:33:27;13.90;99.90
2012;DHT22;1009;51.436;6.972;2023-05-10T06:35:55;14.00;99.90
2012;DHT22;1009;51.436;6.972;2023-05-10T06:38:22;14.00;99.90
2012;DHT22;1009;51.436;6.972;2023-05-10T06:40:49;14.00;99.90
2012;DHT22;1009;51.436;6.972;2023-05-10T06:43:16;14.10;99.90
2012;DHT22;1009;51.436;6.972;2023-05-10T06:45:42;14.20;99.90
2012;DHT22;1009;51.436;6.972;2023-05-10T06:48:09;14.20;99.90
2012;DHT22;1009;51.436;6.972;2023-05-10T06:50:36;14.20;99.90
2012;DHT22;1009;51.436;6.972;2023-05-10T06:53:04;14.20;99.90
2012;DHT22;1009;51.436;6.972;2023-05-10T06:55:33;14.20;99.90
2012;DHT22;1009;51.436;6.972;2023-05-10T06:58:00;14.20;99.90
2012;DHT22;1009;51.436;6.972;2023-05-10T07:00:27;14.40;99.90
2012;DHT22;1009;51.436;6.972;2023-05-10T07:02:54;14.40;99.90
2012;DHT22;1009;51.436;6.972;2023-05-10T07:05:21;14.40;99.90
2012;DHT22;1009;51.436;6.972;2023-05-10T07:07:48;14.40;99.90
2012;DHT22;1009;51.436;6.972;2023-05-10T07:10:16;14.50;99.90
2012;DHT22;1009;51.436;6.972;2023-05-10T07:12:43;14.60;99.90
2012;DHT22;1009;51.436;6.972;2023-05-10T07:15:10;14.60;99.90
2012;DHT22;1009;51.436;6.972;2023-05-10T07:17:36;14.70;99.90
2012;DHT22;1009;51.436;6.972;2023-05-10T07:20:04;14.80;99.90
2012;DHT22;1009;51.436;6.972;2023-05-10T07:22:31;14.80;99.90
2012;DHT22;1009;51.436;6.972;2023-05-10T07:24:57;14.80;99.90
2012;DHT22;1009;51.436;6.972;2023-05-10T07:27:25;14.80;99.90
2012;DHT22;1009;51.436;6.972;2023-05-10T07:29:52;14.80;99.90
2012;DHT22;1009;51.436;6.972;2023-05-10T07:32:20;14.80;99.90
2012;DHT22;1009;51.436;6.972;2023-05-10T07:34:46;14.80;99.90
2012;DHT22;1009;51.436;6.972;2023-05-10T07:37:16;14.90;99.90
2012;DHT22;1009;51.436;6.972;2023-05-10T07:39:43;14.90;99.90
2012;DHT22;1009;51.436;6.972;2023-05-10T07:42:12;14.90;99.90
2012;DHT22;1009;51.436;6.972;2023-05-10T07:44:40;14.80;99.90
2012;DHT22;1009;51.436;6.972;2023-05-10T07:47:10;14.70;99.90
2012;DHT22;1009;51.436;6.972;2023-05-10T07:49:40;14.70;99.90
2012;DHT22;1009;51.436;6.972;2023-05-10T07:52:07;14.70;99.90
2012;DHT22;1009;51.436;6.972;2023-05-10T07:54:35;14.80;99.90
2012;DHT22;1009;51.436;6.972;2023-05-10T07:57:01;14.80;99.90
2012;DHT22;1009;51.436;6.972;2023-05-10T07:59:31;14.80;99.90
2012;DHT22;1009;51.436;6.972;2023-05-10T08:02:00;14.80;99.90
2012;DHT22;1009;51.436;6.972;2023-05-10T08:04:26;14.90;99.90
2012;DHT22;1009;51.436;6.972;2023-05-10T08:06:53;14.80;99.90
2012;DHT22;1009;51.436;6.972;2023-05-10T08:09:20;14.90;99.90
2012;DHT22;1009;51.436;6.972;2023-05-10T08:11:49;14.90;99.90
2012;DHT22;1009;51.436;6.972;2023-05-10T08:14:16;14.80;99.90
2012;DHT22;1009;51.436;6.972;2023-05-10T08:16:43;14.80;99.90
2012;DHT22;1009;51.436;6.972;2023-05-10T08:19:11;14.80;99.90
2012;DHT22;1009;51.436;6.972;2023-05-10T08:21:38;14.80;99.90
2012;DHT22;1009;51.436;6.972;2023-05-10T08:24:06;14.70;99.90
2012;DHT22;1009;51.436;6.972;2023-05-10T08:26:33;14.70;99.90
2012;DHT22;1009;51.436;6.972;2023-05-10T08:29:06;14.80;99.90
2012;DHT22;1009;51.436;6.972;2023-05-10T08:31:35;15.00;99.90
2012;DHT22;1009;51.436;6.972;2023-05-10T08:34:02;15.20;99.90
2012;DHT22;1009;51.436;6.972;2023-05-10T08:36:30;15.20;99.90
2012;DHT22;1009;51.436;6.972;2023-05-10T08:38:57;15.30;99.90
2012;DHT22;1009;51.436;6.972;2023-05-10T08:41:25;15.40;99.90
2012;DHT22;1009;51.436;6.972;2023-05-10T08:43:53;15.30;99.90
2012;DHT22;1009;51.436;6.972;2023-05-10T08:46:21;15.20;99.90
2012;DHT22;1009;51.436;6.972;2023-05-10T08:48:49;15.20;99.90
2012;DHT22;1009;51.436;6.972;2023-05-10T08:51:18;15.30;99.90
2012;DHT22;1009;51.436;6.972;2023-05-10T08:53:46;15.30;99.90
2012;DHT22;1009;51.436;6.972;2023-05-10T08:56:13;15.20;99.90
2012;DHT22;1009;51.436;6.972;2023-05-10T08:58:41;15.10;99.90
2012;DHT22;1009;51.436;6.972;2023-05-10T09:01:11;15.10;99.90
2012;DHT22;1009;51.436;6.972;2023-05-10T09:03:39;15.10;99.90
2012;DHT22;1009;51.436;6.972;2023-05-10T09:06:06;15.10;99.90
2012;DHT22;1009;51.436;6.972;2023-05-10T09:08:33;15.20;99.90
2012;DHT22;1009;51.436;6.972;2023-05-10T09:11:02;15.30;99.90
2012;DHT22;1009;51.436;6.972;2023-05-10T09:13:29;15.40;99.90
2012;DHT22;1009;51.436;6.972;2023-05-10T09:15:56;15.40;99.90
2012;DHT22;1009;51.436;6.972;2023-05-10T09:18:24;15.60;99.90
2012;DHT22;1009;51.436;6.972;2023-05-10T09:20:50;15.60;99.90
2012;DHT22;1009;51.436;6.972;2023-05-10T09:23:17;15.70;99.90
2012;DHT22;1009;51.436;6.972;2023-05-10T09:25:44;15.80;99.90
2012;DHT22;1009;51.436;6.972;2023-05-10T09:28:12;15.80;99.90
2012;DHT22;1009;51.436;6.972;2023-05-10T09:30:39;15.90;99.90
2012;DHT22;1009;51.436;6.972;2023-05-10T09:33:08;15.90;99.90
2012;DHT22;1009;51.436;6.972;2023-05-10T09:35:38;15.90;99.90
2012;DHT22;1009;51.436;6.972;2023-05-10T09:38:05;15.90;99.90
2012;DHT22;1009;51.436;6.972;2023-05-10T09:40:32;15.80;99.90
2012;DHT22;1009;51.436;6.972;2023-05-10T09:43:00;15.40;99.90
2012;DHT22;1009;51.436;6.972;2023-05-10T09:45:33;15.30;99.90
2012;DHT22;1009;51.436;6.972;2023-05-10T09:48:02;15.30;99.90
2012;DHT22;1009;51.436;6.972;2023-05-10T09:50:29;15.20;99.90
2012;DHT22;1009;51.436;6.972;2023-05-10T09:52:58;15.20;99.90
2012;DHT22;1009;51.436;6.972;2023-05-10T09:55:26;15.00;99.90
2012;DHT22;1009;51.436;6.972;2023-05-10T09:58:04;14.90;99.90
2012;DHT22;1009;51.436;6.972;2023-05-10T10:00:37;15.00;99.90
2012;DHT22;1009;51.436;6.972;2023-05-10T10:03:04;15.20;99.90
2012;DHT22;1009;51.436;6.972;2023-05-10T10:05:32;15.40;99.90
2012;DHT22;1009;51.436;6.972;2023-05-10T10:08:03;15.50;99.90
2012;DHT22;1009;51.436;6.972;2023-05-10T10:10:31;15.50;99.90
2012;DHT22;1009;51.436;6.972;2023-05-10T10:12:58;15.70;99.90
2012;DHT22;1009;51.436;6.972;2023-05-10T10:15:26;15.60;99.90
2012;DHT22;1009;51.436;6.972;2023-05-10T10:17:54;15.70;99.90
2012;DHT22;1009;51.436;6.972;2023-05-10T10:20:22;15.80;99.90
2012;DHT22;1009;51.436;6.972;2023-05-10T10:22:49;15.80;99.90
2012;DHT22;1009;51.436;6.972;2023-05-10T10:25:17;15.70;99.90
2012;DHT22;1009;51.436;6.972;2023-05-10T10:27:49;15.60;99.90
2012;DHT22;1009;51.436;6.972;2023-05-10T10:30:27;15.60;99.90
2012;DHT22;1009;51.436;6.972;2023-05-10T10:33:10;15.60;99.90
2012;DHT22;1009;51.436;6.972;2023-05-10T10:35:40;15.60;99.90
2012;DHT22;1009;51.436;6.972;2023-05-10T10:38:08;15.50;99.90
2012;DHT22;1009;51.436;6.972;2023-05-10T10:40:34;15.20;99.90
2012;DHT22;1009;51.436;6.972;2023-05-10T10:43:22;15.20;99.90
2012;DHT22;1009;51.436;6.972;2023-05-10T10:46:10;15.00;99.90
2012;DHT22;1009;51.436;6.972;2023-05-10T10:48:40;14.90;99.90
2012;DHT22;1009;51.436;6.972;2023-05-10T10:51:09;14.90;99.90
2012;DHT22;1009;51.436;6.972;2023-05-10T10:53:38;14.90;99.90
2012;DHT22;1009;51.436;6.972;2023-05-10T10:56:07;14.90;99.90
2012;DHT22;1009;51.436;6.972;2023-05-10T10:58:36;14.90;99.90
2012;DHT22;1009;51.436;6.972;2023-05-10T11:01:11;14.90;99.90
2012;DHT22;1009;51.436;6.972;2023-05-10T11:03:39;15.00;99.90
2012;DHT22;1009;51.436;6.972;2023-05-10T11:06:06;15.10;99.90
2012;DHT22;1009;51.436;6.972;2023-05-10T11:08:41;15.10;99.90
2012;DHT22;1009;51.436;6.972;2023-05-10T11:11:08;15.10;99.90
2012;DHT22;1009;51.436;6.972;2023-05-10T11:13:39;15.30;99.90
2012;DHT22;1009;51.436;6.972;2023-05-10T11:16:24;15.40;99.90
2012;DHT22;1009;51.436;6.972;2023-05-10T11:18:56;15.50;99.90
2012;DHT22;1009;51.436;6.972;2023-05-10T11:21:23;15.60;99.90
2012;DHT22;1009;51.436;6.972;2023-05-10T11:23:52;15.70;99.90
2012;DHT22;1009;51.436;6.972;2023-05-10T11:26:21;15.70;99.90
2012;DHT22;1009;51.436;6.972;2023-05-10T11:28:52;15.50;99.90
2012;DHT22;1009;51.436;6.972;2023-05-10T11:31:30;15.40;99.90
2012;DHT22;1009;51.436;6.972;2023-05-10T11:33:59;15.10;99.90
2012;DHT22;1009;51.436;6.972;2023-05-10T11:36:28;14.90;99.90
2012;DHT22;1009;51.436;6.972;2023-05-10T11:38:56;14.90;99.90
2012;DHT22;1009;51.436;6.972;2023-05-10T11:41:24;14.80;99.90
2012;DHT22;1009;51.436;6.972;2023-05-10T11:43:52;14.80;99.90
2012;DHT22;1009;51.436;6.972;2023-05-10T11:46:20;14.90;99.90
2012;DHT22;1009;51.436;6.972;2023-05-10T11:48:49;15.00;99.90
2012;DHT22;1009;51.436;6.972;2023-05-10T11:51:20;15.00;99.90
2012;DHT22;1009;51.436;6.972;2023-05-10T11:53:48;15.10;99.90
2012;DHT22;1009;51.436;6.972;2023-05-10T11:56:15;15.20;99.90
2012;DHT22;1009;51.436;6.972;2023-05-10T11:58:42;15.30;99.90
2012;DHT22;1009;51.436;6.972;2023-05-10T12:01:09;15.50;99.90
2012;DHT22;1009;51.436;6.972;2023-05-10T12:03:36;15.50;99.90
2012;DHT22;1009;51.436;6.972;2023-05-10T12:06:04;15.60;99.90
2012;DHT22;1009;51.436;6.972;2023-05-10T12:08:43;15.60;99.90
2012;DHT22;1009;51.436;6.972;2023-05-10T12:11:11;15.90;99.90
2012;DHT22;1009;51.436;6.972;2023-05-10T12:13:40;15.90;99.90
2012;DHT22;1009;51.436;6.972;2023-05-10T12:16:14;16.00;99.90
2012;DHT22;1009;51.436;6.972;2023-05-10T12:18:41;16.00;99.90
2012;DHT22;1009;51.436;6.972;2023-05-10T12:21:09;16.00;99.90
2012;DHT22;1009;51.436;6.972;2023-05-10T12:23:38;16.00;99.90
2012;DHT22;1009;51.436;6.972;2023-05-10T12:26:05;16.00;99.90
2012;DHT22;1009;51.436;6.972;2023-05-10T12:28:33;16.00;99.90
2012;DHT22;1009;51.436;6.972;2023-05-10T12:31:00;15.90;99.90
2012;DHT22;1009;51.436;6.972;2023-05-10T12:33:35;15.90;99.90
2012;DHT22;1009;51.436;6.972;2023-05-10T12:36:05;16.00;99.90
2012;DHT22;1009;51.436;6.972;2023-05-10T12:38:33;16.00;99.90
2012;DHT22;1009;51.436;6.972;2023-05-10T12:41:03;16.20;99.90
2012;DHT22;1009;51.436;6.972;2023-05-10T12:43:31;16.30;99.90
2012;DHT22;1009;51.436;6.972;2023-05-10T12:45:58;16.40;99.90
2012;DHT22;1009;51.436;6.972;2023-05-10T12:48:24;16.60;99.90
2012;DHT22;1009;51.436;6.972;2023-05-10T12:50:51;16.80;99.90
2012;DHT22;1009;51.436;6.972;2023-05-10T12:53:18;16.80;99.90
2012;DHT22;1009;51.436;6.972;2023-05-10T12:55:45;16.80;99.90
2012;DHT22;1009;51.436;6.972;2023-05-10T12:58:13;16.80;99.90
2012;DHT22;1009;51.436;6.972;2023-05-10T13:00:40;16.90;99.90
2012;DHT22;1009;51.436;6.972;2023-05-10T13:03:07;16.90;99.90
2012;DHT22;1009;51.436;6.972;2023-05-10T13:05:33;16.80;99.90
2012;DHT22;1009;51.436;6.972;2023-05-10T13:08:00;16.90;99.90
2012;DHT22;1009;51.436;6.972;2023-05-10T13:10:28;17.00;99.90
2012;DHT22;1009;51.436;6.972;2023-05-10T13:12:55;17.00;99.90
2012;DHT22;1009;51.436;6.972;2023-05-10T13:15:24;17.00;99.90
2012;DHT22;1009;51.436;6.972;2023-05-10T13:17:51;17.10;99.90
2012;DHT22;1009;51.436;6.972;2023-05-10T13:20:18;17.20;99.90
2012;DHT22;1009;51.436;6.972;2023-05-10T13:22:44;17.30;99.90
2012;DHT22;1009;51.436;6.972;2023-05-10T13:25:12;17.30;99.90
2012;DHT22;1009;51.436;6.972;2023-05-10T13:27:39;17.50;99.90
2012;DHT22;1009;51.436;6.972;2023-05-10T13:30:07;17.90;99.90
2012;DHT22;1009;51.436;6.972;2023-05-10T13:32:41;18.20;99.90
2012;DHT22;1009;51.436;6.972;2023-05-10T13:35:08;18.40;99.90
2012;DHT22;1009;51.436;6.972;2023-05-10T13:37:35;18.40;99.90
2012;DHT22;1009;51.436;6.972;2023-05-10T13:40:03;18.30;99.90
2012;DHT22;1009;51.436;6.972;2023-05-10T13:42:33;18.20;99.90
2012;DHT22;1009;51.436;6.972;2023-05-10T13:45:00;18.10;99.90
2012;DHT22;1009;51.436;6.972;2023-05-10T13:47:27;18.00;99.90
2012;DHT22;1009;51.436;6.972;2023-05-10T13:49:55;18.00;99.90
2012;DHT22;1009;51.436;6.972;2023-05-10T13:52:22;18.00;99.90
2012;DHT22;1009;51.436;6.972;2023-05-10T13:54:49;18.10;99.90
2012;DHT22;1009;51.436;6.972;2023-05-10T13:57:17;18.10;99.90
2012;DHT22;1009;51.436;6.972;2023-05-10T13:59:44;18.00;99.90
2012;DHT22;1009;51.436;6.972;2023-05-10T14:02:11;17.90;99.90
2012;DHT22;1009;51.436;6.972;2023-05-10T14:04:38;18.20;99.90
2012;DHT22;1009;51.436;6.972;2023-05-10T14:07:06;18.60;99.90
2012;DHT22;1009;51.436;6.972;2023-05-10T14:09:33;18.80;99.90
2012;DHT22;1009;51.436;6.972;2023-05-10T14:12:00;19.00;99.90
2012;DHT22;1009;51.436;6.972;2023-05-10T14:14:27;19.20;99.90
2012;DHT22;1009;51.436;6.972;2023-05-10T14:16:57;19.20;99.90
2012;DHT22;1009;51.436;6.972;2023-05-10T14:19:24;19.30;99.90
2012;DHT22;1009;51.436;6.972;2023-05-10T14:21:52;19.70;99.90
2012;DHT22;1009;51.436;6.972;2023-05-10T14:24:20;19.80;99.90
2012;DHT22;1009;51.436;6.972;2023-05-10T14:26:47;19.80;99.90
2012;DHT22;1009;51.436;6.972;2023-05-10T14:29:14;19.90;99.90
2012;DHT22;1009;51.436;6.972;2023-05-10T14:31:40;19.70;99.90
2012;DHT22;1009;51.436;6.972;2023-05-10T14:34:07;19.40;99.90
2012;DHT22;1009;51.436;6.972;2023-05-10T14:36:34;19.20;99.90
2012;DHT22;1009;51.436;6.972;2023-05-10T14:39:01;19.10;99.90
2012;DHT22;1009;51.436;6.972;2023-05-10T14:41:30;18.90;99.90
2012;DHT22;1009;51.436;6.972;2023-05-10T14:43:56;18.80;99.90
2012;DHT22;1009;51.436;6.972;2023-05-10T14:46:23;18.70;99.90
2012;DHT22;1009;51.436;6.972;2023-05-10T14:48:50;18.60;99.90
2012;DHT22;1009;51.436;6.972;2023-05-10T14:51:17;18.60;99.90
2012;DHT22;1009;51.436;6.972;2023-05-10T14:53:47;18.60;99.90
2012;DHT22;1009;51.436;6.972;2023-05-10T14:56:13;18.40;99.90
2012;DHT22;1009;51.436;6.972;2023-05-10T14:58:42;18.50;99.90
2012;DHT22;1009;51.436;6.972;2023-05-10T15:01:08;18.50;99.90
2012;DHT22;1009;51.436;6.972;2023-05-10T15:03:35;18.50;99.90
2012;DHT22;1009;51.436;6.972;2023-05-10T15:06:03;18.40;99.90
2012;DHT22;1009;51.436;6.972;2023-05-10T15:08:30;18.40;99.90
2012;DHT22;1009;51.436;6.972;2023-05-10T15:10:59;18.30;99.90
2012;DHT22;1009;51.436;6.972;2023-05-10T15:13:27;18.40;99.90
2012;DHT22;1009;51.436;6.972;2023-05-10T15:15:55;18.30;99.90
2012;DHT22;1009;51.436;6.972;2023-05-10T15:18:21;18.30;99.90
2012;DHT22;1009;51.436;6.972;2023-05-10T15:20:48;18.30;99.90
2012;DHT22;1009;51.436;6.972;2023-05-10T15:23:15;18.30;99.90
2012;DHT22;1009;51.436;6.972;2023-05-10T15:25:42;18.00;99.90
2012;DHT22;1009;51.436;6.972;2023-05-10T15:28:09;17.90;99.90
2012;DHT22;1009;51.436;6.972;2023-05-10T15:30:36;17.90;99.90
2012;DHT22;1009;51.436;6.972;2023-05-10T15:33:07;17.90;99.90
2012;DHT22;1009;51.436;6.972;2023-05-10T15:35:34;17.90;99.90
2012;DHT22;1009;51.436;6.972;2023-05-10T15:38:03;17.90;99.90
2012;DHT22;1009;51.436;6.972;2023-05-10T15:40:31;17.90;99.90
2012;DHT22;1009;51.436;6.972;2023-05-10T15:42:58;17.90;99.90
2012;DHT22;1009;51.436;6.972;2023-05-10T15:45:25;17.90;99.90
2012;DHT22;1009;51.436;6.972;2023-05-10T15:47:52;17.90;99.90
2012;DHT22;1009;51.436;6.972;2023-05-10T15:50:23;17.80;99.90
2012;DHT22;1009;51.436;6.972;2023-05-10T15:52:50;17.90;99.90
2012;DHT22;1009;51.436;6.972;2023-05-10T15:55:18;18.00;99.90
2012;DHT22;1009;51.436;6.972;2023-05-10T15:57:45;17.90;99.90
2012;DHT22;1009;51.436;6.972;2023-05-10T16:00:13;17.80;99.90
2012;DHT22;1009;51.436;6.972;2023-05-10T16:02:41;17.80;99.90
2012;DHT22;1009;51.436;6.972;2023-05-10T16:05:12;17.70;99.90
2012;DHT22;1009;51.436;6.972;2023-05-10T16:07:40;17.70;99.90
2012;DHT22;1009;51.436;6.972;2023-05-10T16:10:08;17.60;99.90